Terminal Aerodrome Forecast
Issued by NWS

Home | Current Version | Previous Version | Text Only | Print | Product List | Glossary On
Versions: 1 2 3 4 5 6 7 8 9 10 11 12 13 14 15
000
FTUS43 KPAH 310300 AAA
TAFCGI
TAF AMD
KCGI 310340Z 3104/3124 17005KT P6SM BKN016
      TEMPO 3104/3106 SCT016 OVC150
     FM310600 17003KT 6SM BR BKN010
     FM311500 23005KT P6SM BKN030
     FM311800 21007KT P6SM SCT040=

USA.gov is the U.S. government's official web portal to all federal, state and local government web resources and services.